sensor_id;sensor_type;location;lat;lon;timestamp;temperature;humidity
67196;DHT22;54122;53.538;49.366;2023-03-22T00:01:21;6.20;81.60
67196;DHT22;54122;53.538;49.366;2023-03-22T00:03:49;6.20;81.50
67196;DHT22;54122;53.538;49.366;2023-03-22T00:06:17;6.20;81.50
67196;DHT22;54122;53.538;49.366;2023-03-22T00:08:46;6.30;81.40
67196;DHT22;54122;53.538;49.366;2023-03-22T00:11:13;6.30;81.20
67196;DHT22;54122;53.538;49.366;2023-03-22T00:13:39;6.30;81.00
67196;DHT22;54122;53.538;49.366;2023-03-22T00:16:08;6.40;80.90
67196;DHT22;54122;53.538;49.366;2023-03-22T00:18:35;6.40;80.70
67196;DHT22;54122;53.538;49.366;2023-03-22T00:21:02;6.40;80.70
67196;DHT22;54122;53.538;49.366;2023-03-22T00:23:28;6.40;80.50
67196;DHT22;54122;53.538;49.366;2023-03-22T00:25:55;6.40;80.50
67196;DHT22;54122;53.538;49.366;2023-03-22T00:28:22;6.40;80.50
67196;DHT22;54122;53.538;49.366;2023-03-22T00:30:57;6.30;80.60
67196;DHT22;54122;53.538;49.366;2023-03-22T00:33:24;6.20;80.60
67196;DHT22;54122;53.538;49.366;2023-03-22T00:36:13;6.10;80.70
67196;DHT22;54122;53.538;49.366;2023-03-22T00:38:39;6.10;81.10
67196;DHT22;54122;53.538;49.366;2023-03-22T00:41:16;6.00;81.30
67196;DHT22;54122;53.538;49.366;2023-03-22T00:43:43;6.00;81.40
67196;DHT22;54122;53.538;49.366;2023-03-22T00:46:10;5.90;81.50
67196;DHT22;54122;53.538;49.366;2023-03-22T00:48:37;5.80;81.60
67196;DHT22;54122;53.538;49.366;2023-03-22T00:51:05;5.80;81.80
67196;DHT22;54122;53.538;49.366;2023-03-22T00:53:32;5.70;82.00
67196;DHT22;54122;53.538;49.366;2023-03-22T00:55:58;5.80;82.10
67196;DHT22;54122;53.538;49.366;2023-03-22T00:58:25;5.80;82.00
67196;DHT22;54122;53.538;49.366;2023-03-22T01:00:51;5.80;81.70
67196;DHT22;54122;53.538;49.366;2023-03-22T01:03:18;5.80;81.60
67196;DHT22;54122;53.538;49.366;2023-03-22T01:05:47;5.70;81.70
67196;DHT22;54122;53.538;49.366;2023-03-22T01:08:14;5.70;81.90
67196;DHT22;54122;53.538;49.366;2023-03-22T01:10:42;5.80;82.90
67196;DHT22;54122;53.538;49.366;2023-03-22T01:13:10;5.90;81.60
67196;DHT22;54122;53.538;49.366;2023-03-22T01:15:36;5.90;81.40
67196;DHT22;54122;53.538;49.366;2023-03-22T01:18:03;6.00;81.20
67196;DHT22;54122;53.538;49.366;2023-03-22T01:20:31;6.00;81.00
67196;DHT22;54122;53.538;49.366;2023-03-22T01:22:57;6.10;81.00
67196;DHT22;54122;53.538;49.366;2023-03-22T01:25:24;6.10;80.90
67196;DHT22;54122;53.538;49.366;2023-03-22T01:27:51;6.00;80.80
67196;DHT22;54122;53.538;49.366;2023-03-22T01:30:17;6.00;80.70
67196;DHT22;54122;53.538;49.366;2023-03-22T01:32:44;6.00;80.70
67196;DHT22;54122;53.538;49.366;2023-03-22T01:35:10;6.00;80.90
67196;DHT22;54122;53.538;49.366;2023-03-22T01:37:36;6.00;80.80
67196;DHT22;54122;53.538;49.366;2023-03-22T01:40:04;6.00;80.90
67196;DHT22;54122;53.538;49.366;2023-03-22T01:42:30;6.00;81.00
67196;DHT22;54122;53.538;49.366;2023-03-22T01:50:12;6.00;81.40
67196;DHT22;54122;53.538;49.366;2023-03-22T01:52:40;6.00;81.40
67196;DHT22;54122;53.538;49.366;2023-03-22T01:55:07;6.10;82.30
67196;DHT22;54122;53.538;49.366;2023-03-22T01:57:37;6.10;81.10
67196;DHT22;54122;53.538;49.366;2023-03-22T02:00:07;6.10;80.90
67196;DHT22;54122;53.538;49.366;2023-03-22T02:02:42;6.10;80.90
67196;DHT22;54122;53.538;49.366;2023-03-22T02:05:09;6.20;81.00
67196;DHT22;54122;53.538;49.366;2023-03-22T02:07:39;6.20;81.00
67196;DHT22;54122;53.538;49.366;2023-03-22T02:10:11;6.10;80.90
67196;DHT22;54122;53.538;49.366;2023-03-22T02:15:40;6.10;81.00
67196;DHT22;54122;53.538;49.366;2023-03-22T02:18:48;6.00;81.20
67196;DHT22;54122;53.538;49.366;2023-03-22T02:29:55;5.70;82.00
67196;DHT22;54122;53.538;49.366;2023-03-22T02:40:51;5.10;84.00
67196;DHT22;54122;53.538;49.366;2023-03-22T02:46:05;5.10;84.90
67196;DHT22;54122;53.538;49.366;2023-03-22T02:49:21;5.10;84.80
67196;DHT22;54122;53.538;49.366;2023-03-22T02:54:08;5.10;84.90
67196;DHT22;54122;53.538;49.366;2023-03-22T02:57:00;5.10;84.70
67196;DHT22;54122;53.538;49.366;2023-03-22T02:59:29;5.20;84.50
67196;DHT22;54122;53.538;49.366;2023-03-22T03:01:58;5.10;84.70
67196;DHT22;54122;53.538;49.366;2023-03-22T03:04:39;5.10;84.60
67196;DHT22;54122;53.538;49.366;2023-03-22T03:07:08;5.20;84.50
67196;DHT22;54122;53.538;49.366;2023-03-22T03:09:39;5.20;84.50
67196;DHT22;54122;53.538;49.366;2023-03-22T03:12:22;5.20;84.30
67196;DHT22;54122;53.538;49.366;2023-03-22T03:14:49;5.30;84.20
67196;DHT22;54122;53.538;49.366;2023-03-22T03:17:36;5.40;84.00
67196;DHT22;54122;53.538;49.366;2023-03-22T03:26:32;5.80;83.50
67196;DHT22;54122;53.538;49.366;2023-03-22T03:29:04;5.90;83.20
67196;DHT22;54122;53.538;49.366;2023-03-22T03:31:51;6.30;82.50
67196;DHT22;54122;53.538;49.366;2023-03-22T03:37:23;6.60;81.40
67196;DHT22;54122;53.538;49.366;2023-03-22T03:40:26;6.70;81.20
67196;DHT22;54122;53.538;49.366;2023-03-22T03:42:49;6.80;81.20
67196;DHT22;54122;53.538;49.366;2023-03-22T03:45:20;6.90;80.80
67196;DHT22;54122;53.538;49.366;2023-03-22T03:47:49;7.00;80.60
67196;DHT22;54122;53.538;49.366;2023-03-22T03:50:23;7.20;80.00
67196;DHT22;54122;53.538;49.366;2023-03-22T03:52:52;7.40;79.50
67196;DHT22;54122;53.538;49.366;2023-03-22T03:55:20;7.70;79.20
67196;DHT22;54122;53.538;49.366;2023-03-22T03:57:47;7.90;77.80
67196;DHT22;54122;53.538;49.366;2023-03-22T04:00:14;8.00;77.30
67196;DHT22;54122;53.538;49.366;2023-03-22T04:02:41;8.00;77.00
67196;DHT22;54122;53.538;49.366;2023-03-22T04:05:08;7.90;76.90
67196;DHT22;54122;53.538;49.366;2023-03-22T04:07:36;7.90;76.90
67196;DHT22;54122;53.538;49.366;2023-03-22T04:10:04;7.90;76.60
67196;DHT22;54122;53.538;49.366;2023-03-22T04:12:32;7.90;76.40
67196;DHT22;54122;53.538;49.366;2023-03-22T04:14:58;7.90;76.20
67196;DHT22;54122;53.538;49.366;2023-03-22T04:17:25;8.00;76.10
67196;DHT22;54122;53.538;49.366;2023-03-22T04:19:54;8.00;75.60
67196;DHT22;54122;53.538;49.366;2023-03-22T04:22:24;8.20;75.10
67196;DHT22;54122;53.538;49.366;2023-03-22T04:24:51;8.50;74.60
67196;DHT22;54122;53.538;49.366;2023-03-22T04:27:19;8.80;73.40
67196;DHT22;54122;53.538;49.366;2023-03-22T04:29:46;8.90;72.20
67196;DHT22;54122;53.538;49.366;2023-03-22T04:32:20;9.10;71.90
67196;DHT22;54122;53.538;49.366;2023-03-22T04:34:51;9.50;71.20
67196;DHT22;54122;53.538;49.366;2023-03-22T04:37:19;10.00;69.90
67196;DHT22;54122;53.538;49.366;2023-03-22T04:39:47;10.50;68.50
67196;DHT22;54122;53.538;49.366;2023-03-22T04:42:14;11.00;66.80
67196;DHT22;54122;53.538;49.366;2023-03-22T04:44:40;11.20;65.80
67196;DHT22;54122;53.538;49.366;2023-03-22T04:47:07;11.30;64.80
67196;DHT22;54122;53.538;49.366;2023-03-22T04:49:33;11.20;64.30
67196;DHT22;54122;53.538;49.366;2023-03-22T04:52:00;11.10;64.40
67196;DHT22;54122;53.538;49.366;2023-03-22T04:54:26;11.00;64.50
67196;DHT22;54122;53.538;49.366;2023-03-22T04:56:53;10.90;64.20
67196;DHT22;54122;53.538;49.366;2023-03-22T04:59:19;10.80;64.30
67196;DHT22;54122;53.538;49.366;2023-03-22T05:01:46;10.70;64.20
67196;DHT22;54122;53.538;49.366;2023-03-22T05:04:14;10.70;64.30
67196;DHT22;54122;53.538;49.366;2023-03-22T05:06:41;10.90;63.80
67196;DHT22;54122;53.538;49.366;2023-03-22T05:09:08;11.20;62.90
67196;DHT22;54122;53.538;49.366;2023-03-22T05:11:36;11.60;61.80
67196;DHT22;54122;53.538;49.366;2023-03-22T05:14:03;12.10;60.50
67196;DHT22;54122;53.538;49.366;2023-03-22T05:16:29;12.80;58.70
67196;DHT22;54122;53.538;49.366;2023-03-22T05:18:56;13.50;56.40
67196;DHT22;54122;53.538;49.366;2023-03-22T05:21:24;14.50;54.50
67196;DHT22;54122;53.538;49.366;2023-03-22T05:23:55;15.40;51.60
67196;DHT22;54122;53.538;49.366;2023-03-22T05:26:23;15.90;49.40
67196;DHT22;54122;53.538;49.366;2023-03-22T05:28:54;16.60;47.00
67196;DHT22;54122;53.538;49.366;2023-03-22T05:31:22;17.10;45.00
67196;DHT22;54122;53.538;49.366;2023-03-22T05:33:49;16.90;43.90
67196;DHT22;54122;53.538;49.366;2023-03-22T05:36:19;16.30;44.70
67196;DHT22;54122;53.538;49.366;2023-03-22T05:38:45;16.00;45.40
67196;DHT22;54122;53.538;49.366;2023-03-22T05:41:13;16.10;45.20
67196;DHT22;54122;53.538;49.366;2023-03-22T05:43:40;16.20;44.70
67196;DHT22;54122;53.538;49.366;2023-03-22T05:46:08;16.10;44.80
67196;DHT22;54122;53.538;49.366;2023-03-22T05:48:36;16.10;44.40
67196;DHT22;54122;53.538;49.366;2023-03-22T05:51:11;16.20;43.80
67196;DHT22;54122;53.538;49.366;2023-03-22T05:53:44;16.20;43.50
67196;DHT22;54122;53.538;49.366;2023-03-22T05:56:10;16.20;43.60
67196;DHT22;54122;53.538;49.366;2023-03-22T05:58:37;16.20;43.50
67196;DHT22;54122;53.538;49.366;2023-03-22T06:01:07;16.30;43.40
67196;DHT22;54122;53.538;49.366;2023-03-22T06:03:33;16.50;42.90
67196;DHT22;54122;53.538;49.366;2023-03-22T06:06:00;16.70;43.70
67196;DHT22;54122;53.538;49.366;2023-03-22T06:08:26;16.60;41.90
67196;DHT22;54122;53.538;49.366;2023-03-22T06:10:53;16.10;42.40
67196;DHT22;54122;53.538;49.366;2023-03-22T06:13:20;15.70;43.50
67196;DHT22;54122;53.538;49.366;2023-03-22T06:15:47;15.10;44.30
67196;DHT22;54122;53.538;49.366;2023-03-22T06:18:13;14.70;45.30
67196;DHT22;54122;53.538;49.366;2023-03-22T06:20:39;14.60;45.90
67196;DHT22;54122;53.538;49.366;2023-03-22T06:23:06;14.50;45.90
67196;DHT22;54122;53.538;49.366;2023-03-22T06:25:33;14.30;45.90
67196;DHT22;54122;53.538;49.366;2023-03-22T06:27:59;14.00;46.60
67196;DHT22;54122;53.538;49.366;2023-03-22T06:30:26;14.10;47.20
67196;DHT22;54122;53.538;49.366;2023-03-22T06:32:52;14.60;46.80
67196;DHT22;54122;53.538;49.366;2023-03-22T06:35:20;15.00;46.10
67196;DHT22;54122;53.538;49.366;2023-03-22T06:37:46;15.70;45.10
67196;DHT22;54122;53.538;49.366;2023-03-22T06:40:13;16.80;43.20
67196;DHT22;54122;53.538;49.366;2023-03-22T06:42:40;17.80;40.90
67196;DHT22;54122;53.538;49.366;2023-03-22T06:45:07;17.80;38.90
67196;DHT22;54122;53.538;49.366;2023-03-22T06:47:34;17.20;39.60
67196;DHT22;54122;53.538;49.366;2023-03-22T06:50:00;16.70;40.40
67196;DHT22;54122;53.538;49.366;2023-03-22T06:52:27;16.50;41.00
67196;DHT22;54122;53.538;49.366;2023-03-22T06:54:54;16.50;41.00
67196;DHT22;54122;53.538;49.366;2023-03-22T06:57:21;16.60;40.90
67196;DHT22;54122;53.538;49.366;2023-03-22T06:59:48;16.30;40.30
67196;DHT22;54122;53.538;49.366;2023-03-22T07:02:14;15.70;41.10
67196;DHT22;54122;53.538;49.366;2023-03-22T07:04:41;15.30;42.40
67196;DHT22;54122;53.538;49.366;2023-03-22T07:07:07;15.10;42.50
67196;DHT22;54122;53.538;49.366;2023-03-22T07:09:33;14.80;42.90
67196;DHT22;54122;53.538;49.366;2023-03-22T07:12:00;14.60;43.10
67196;DHT22;54122;53.538;49.366;2023-03-22T07:14:27;14.60;43.60
67196;DHT22;54122;53.538;49.366;2023-03-22T07:16:55;14.70;43.30
67196;DHT22;54122;53.538;49.366;2023-03-22T07:19:21;15.00;42.50
67196;DHT22;54122;53.538;49.366;2023-03-22T07:21:48;14.90;42.00
67196;DHT22;54122;53.538;49.366;2023-03-22T07:24:14;14.60;42.90
67196;DHT22;54122;53.538;49.366;2023-03-22T07:26:41;14.70;42.60
67196;DHT22;54122;53.538;49.366;2023-03-22T07:29:08;15.00;41.90
67196;DHT22;54122;53.538;49.366;2023-03-22T07:31:34;14.90;41.80
67196;DHT22;54122;53.538;49.366;2023-03-22T07:34:02;14.90;42.00
67196;DHT22;54122;53.538;49.366;2023-03-22T07:36:29;14.80;41.70
67196;DHT22;54122;53.538;49.366;2023-03-22T07:38:56;14.20;42.50
67196;DHT22;54122;53.538;49.366;2023-03-22T07:41:23;13.60;45.00
67196;DHT22;54122;53.538;49.366;2023-03-22T07:43:50;13.20;45.30
67196;DHT22;54122;53.538;49.366;2023-03-22T07:46:17;12.90;46.30
67196;DHT22;54122;53.538;49.366;2023-03-22T07:48:44;13.10;46.70
67196;DHT22;54122;53.538;49.366;2023-03-22T07:51:10;13.30;46.80
67196;DHT22;54122;53.538;49.366;2023-03-22T07:53:37;13.70;45.80
67196;DHT22;54122;53.538;49.366;2023-03-22T07:56:03;14.30;45.30
67196;DHT22;54122;53.538;49.366;2023-03-22T07:58:30;15.50;43.10
67196;DHT22;54122;53.538;49.366;2023-03-22T08:00:56;16.30;40.70
67196;DHT22;54122;53.538;49.366;2023-03-22T08:03:26;17.10;38.90
67196;DHT22;54122;53.538;49.366;2023-03-22T08:05:52;17.10;38.60
67196;DHT22;54122;53.538;49.366;2023-03-22T08:08:18;17.10;38.30
67196;DHT22;54122;53.538;49.366;2023-03-22T08:10:49;16.90;38.40
67196;DHT22;54122;53.538;49.366;2023-03-22T08:13:16;16.80;39.00
67196;DHT22;54122;53.538;49.366;2023-03-22T08:15:42;17.10;38.20
67196;DHT22;54122;53.538;49.366;2023-03-22T08:18:09;17.30;37.00
67196;DHT22;54122;53.538;49.366;2023-03-22T08:20:35;17.50;36.70
67196;DHT22;54122;53.538;49.366;2023-03-22T08:23:02;17.60;37.10
67196;DHT22;54122;53.538;49.366;2023-03-22T08:25:30;18.00;34.90
67196;DHT22;54122;53.538;49.366;2023-03-22T08:27:58;17.80;33.40
67196;DHT22;54122;53.538;49.366;2023-03-22T08:30:24;17.40;34.10
67196;DHT22;54122;53.538;49.366;2023-03-22T08:32:51;17.00;35.40
67196;DHT22;54122;53.538;49.366;2023-03-22T08:35:18;16.40;35.10
67196;DHT22;54122;53.538;49.366;2023-03-22T08:37:44;15.70;36.10
67196;DHT22;54122;53.538;49.366;2023-03-22T08:40:11;15.40;37.00
67196;DHT22;54122;53.538;49.366;2023-03-22T08:42:37;15.30;37.50
67196;DHT22;54122;53.538;49.366;2023-03-22T08:45:04;15.60;36.90
67196;DHT22;54122;53.538;49.366;2023-03-22T08:47:31;16.30;36.50
67196;DHT22;54122;53.538;49.366;2023-03-22T08:49:57;17.10;35.30
67196;DHT22;54122;53.538;49.366;2023-03-22T08:52:24;17.70;34.10
67196;DHT22;54122;53.538;49.366;2023-03-22T08:54:50;18.10;33.50
67196;DHT22;54122;53.538;49.366;2023-03-22T08:57:18;18.30;32.70
67196;DHT22;54122;53.538;49.366;2023-03-22T08:59:47;18.70;32.40
67196;DHT22;54122;53.538;49.366;2023-03-22T09:02:13;19.10;31.10
67196;DHT22;54122;53.538;49.366;2023-03-22T09:04:40;19.00;30.80
67196;DHT22;54122;53.538;49.366;2023-03-22T09:07:07;19.00;30.70
67196;DHT22;54122;53.538;49.366;2023-03-22T09:09:33;19.00;30.70
67196;DHT22;54122;53.538;49.366;2023-03-22T09:11:59;18.90;30.80
67196;DHT22;54122;53.538;49.366;2023-03-22T09:14:26;18.60;31.10
67196;DHT22;54122;53.538;49.366;2023-03-22T09:16:52;18.50;31.50
67196;DHT22;54122;53.538;49.366;2023-03-22T09:19:19;18.40;31.90
67196;DHT22;54122;53.538;49.366;2023-03-22T09:21:45;18.40;31.80
67196;DHT22;54122;53.538;49.366;2023-03-22T09:24:12;18.20;31.30
67196;DHT22;54122;53.538;49.366;2023-03-22T09:26:38;18.10;31.70
67196;DHT22;54122;53.538;49.366;2023-03-22T09:29:04;18.10;32.00
67196;DHT22;54122;53.538;49.366;2023-03-22T09:31:31;18.10;32.20
67196;DHT22;54122;53.538;49.366;2023-03-22T09:33:57;17.90;32.30
67196;DHT22;54122;53.538;49.366;2023-03-22T09:36:24;17.70;32.50
67196;DHT22;54122;53.538;49.366;2023-03-22T09:38:50;17.40;33.10
67196;DHT22;54122;53.538;49.366;2023-03-22T09:41:35;17.00;33.80
67196;DHT22;54122;53.538;49.366;2023-03-22T09:44:05;16.80;34.90
67196;DHT22;54122;53.538;49.366;2023-03-22T09:46:36;16.50;35.20
67196;DHT22;54122;53.538;49.366;2023-03-22T09:49:17;16.20;35.90
67196;DHT22;54122;53.538;49.366;2023-03-22T09:51:47;16.00;36.70
67196;DHT22;54122;53.538;49.366;2023-03-22T09:54:32;15.70;36.90
67196;DHT22;54122;53.538;49.366;2023-03-22T09:57:06;15.30;37.90
67196;DHT22;54122;53.538;49.366;2023-03-22T09:59:49;14.90;38.80
67196;DHT22;54122;53.538;49.366;2023-03-22T10:02:35;14.60;39.90
67196;DHT22;54122;53.538;49.366;2023-03-22T10:10:39;14.40;41.00
67196;DHT22;54122;53.538;49.366;2023-03-22T10:15:50;14.30;40.70
67196;DHT22;54122;53.538;49.366;2023-03-22T10:18:29;14.20;40.50
67196;DHT22;54122;53.538;49.366;2023-03-22T10:21:07;14.20;41.30
67196;DHT22;54122;53.538;49.366;2023-03-22T10:23:49;14.00;41.40
67196;DHT22;54122;53.538;49.366;2023-03-22T10:26:26;14.00;41.90
67196;DHT22;54122;53.538;49.366;2023-03-22T10:29:00;13.90;42.00
67196;DHT22;54122;53.538;49.366;2023-03-22T10:31:43;13.90;42.40
67196;DHT22;54122;53.538;49.366;2023-03-22T10:34:21;13.90;42.60
67196;DHT22;54122;53.538;49.366;2023-03-22T10:36:50;14.00;42.50
67196;DHT22;54122;53.538;49.366;2023-03-22T10:39:34;14.00;42.40
67196;DHT22;54122;53.538;49.366;2023-03-22T10:42:14;14.10;42.60
67196;DHT22;54122;53.538;49.366;2023-03-22T10:47:28;14.10;42.10
67196;DHT22;54122;53.538;49.366;2023-03-22T10:49:58;14.10;42.40
67196;DHT22;54122;53.538;49.366;2023-03-22T10:55:42;14.00;42.60
67196;DHT22;54122;53.538;49.366;2023-03-22T10:58:20;14.00;43.00
67196;DHT22;54122;53.538;49.366;2023-03-22T11:00:49;14.10;43.00
67196;DHT22;54122;53.538;49.366;2023-03-22T11:06:11;14.10;42.90
67196;DHT22;54122;53.538;49.366;2023-03-22T11:08:53;14.00;42.60
67196;DHT22;54122;53.538;49.366;2023-03-22T11:11:35;13.90;43.10
67196;DHT22;54122;53.538;49.366;2023-03-22T11:16:46;13.70;43.40
67196;DHT22;54122;53.538;49.366;2023-03-22T11:19:41;13.70;43.70
67196;DHT22;54122;53.538;49.366;2023-03-22T11:22:30;13.60;44.30
67196;DHT22;54122;53.538;49.366;2023-03-22T11:24:59;13.60;44.40
67196;DHT22;54122;53.538;49.366;2023-03-22T11:27:31;13.70;45.30
67196;DHT22;54122;53.538;49.366;2023-03-22T11:30:22;13.80;44.30
67196;DHT22;54122;53.538;49.366;2023-03-22T11:32:59;13.90;44.10
67196;DHT22;54122;53.538;49.366;2023-03-22T11:35:29;13.80;44.10
67196;DHT22;54122;53.538;49.366;2023-03-22T11:37:56;13.80;44.20
67196;DHT22;54122;53.538;49.366;2023-03-22T11:40:28;13.70;44.40
67196;DHT22;54122;53.538;49.366;2023-03-22T11:43:14;13.60;44.20
67196;DHT22;54122;53.538;49.366;2023-03-22T11:45:43;13.60;44.60
67196;DHT22;54122;53.538;49.366;2023-03-22T11:48:28;13.60;44.90
67196;DHT22;54122;53.538;49.366;2023-03-22T11:51:04;13.60;44.90
67196;DHT22;54122;53.538;49.366;2023-03-22T11:53:32;13.60;45.20
67196;DHT22;54122;53.538;49.366;2023-03-22T11:56:01;13.60;46.30
67196;DHT22;54122;53.538;49.366;2023-03-22T12:01:05;13.50;44.90
67196;DHT22;54122;53.538;49.366;2023-03-22T12:03:35;13.40;45.20
67196;DHT22;54122;53.538;49.366;2023-03-22T12:06:04;13.40;45.40
67196;DHT22;54122;53.538;49.366;2023-03-22T12:08:53;13.40;45.50
67196;DHT22;54122;53.538;49.366;2023-03-22T12:11:38;13.30;45.60
67196;DHT22;54122;53.538;49.366;2023-03-22T12:14:28;13.30;45.70
67196;DHT22;54122;53.538;49.366;2023-03-22T12:16:58;13.30;45.70
67196;DHT22;54122;53.538;49.366;2023-03-22T12:22:39;13.30;46.10
67196;DHT22;54122;53.538;49.366;2023-03-22T12:25:14;13.30;46.20
67196;DHT22;54122;53.538;49.366;2023-03-22T12:27:46;13.30;46.40
67196;DHT22;54122;53.538;49.366;2023-03-22T12:30:17;13.30;46.40
67196;DHT22;54122;53.538;49.366;2023-03-22T12:35:29;13.10;47.10
67196;DHT22;54122;53.538;49.366;2023-03-22T12:37:59;12.90;47.40
67196;DHT22;54122;53.538;49.366;2023-03-22T12:40:47;12.80;47.70
67196;DHT22;54122;53.538;49.366;2023-03-22T12:43:39;12.80;47.90
67196;DHT22;54122;53.538;49.366;2023-03-22T12:46:04;12.80;48.10
67196;DHT22;54122;53.538;49.366;2023-03-22T12:48:38;12.80;48.10
67196;DHT22;54122;53.538;49.366;2023-03-22T12:51:07;12.90;47.80
67196;DHT22;54122;53.538;49.366;2023-03-22T12:53:39;13.00;47.90
67196;DHT22;54122;53.538;49.366;2023-03-22T12:56:13;13.10;47.70
67196;DHT22;54122;53.538;49.366;2023-03-22T12:58:42;13.10;47.30
67196;DHT22;54122;53.538;49.366;2023-03-22T13:07:08;13.40;46.90
67196;DHT22;54122;53.538;49.366;2023-03-22T13:27:40;13.70;46.10
67196;DHT22;54122;53.538;49.366;2023-03-22T13:35:26;13.40;46.90
67196;DHT22;54122;53.538;49.366;2023-03-22T13:38:00;13.30;47.20
67196;DHT22;54122;53.538;49.366;2023-03-22T13:40:44;13.30;47.50
67196;DHT22;54122;53.538;49.366;2023-03-22T13:51:21;13.10;47.90
67196;DHT22;54122;53.538;49.366;2023-03-22T14:01:42;12.80;48.50
67196;DHT22;54122;53.538;49.366;2023-03-22T14:04:16;12.80;49.10
67196;DHT22;54122;53.538;49.366;2023-03-22T14:06:54;12.70;49.20
67196;DHT22;54122;53.538;49.366;2023-03-22T14:09:30;12.70;49.30
67196;DHT22;54122;53.538;49.366;2023-03-22T14:15:10;12.70;49.70
67196;DHT22;54122;53.538;49.366;2023-03-22T14:17:48;12.60;50.10
67196;DHT22;54122;53.538;49.366;2023-03-22T14:20:21;12.60;50.20
67196;DHT22;54122;53.538;49.366;2023-03-22T14:22:59;12.50;50.60
67196;DHT22;54122;53.538;49.366;2023-03-22T14:25:30;12.50;51.10
67196;DHT22;54122;53.538;49.366;2023-03-22T14:27:58;12.40;51.00
67196;DHT22;54122;53.538;49.366;2023-03-22T14:32:59;12.30;51.90
67196;DHT22;54122;53.538;49.366;2023-03-22T14:35:33;12.20;52.20
67196;DHT22;54122;53.538;49.366;2023-03-22T14:38:02;12.20;52.70
67196;DHT22;54122;53.538;49.366;2023-03-22T14:40:33;12.10;53.40
67196;DHT22;54122;53.538;49.366;2023-03-22T14:43:21;12.10;54.10
67196;DHT22;54122;53.538;49.366;2023-03-22T14:45:58;11.90;54.80
67196;DHT22;54122;53.538;49.366;2023-03-22T14:48:32;11.90;55.10
67196;DHT22;54122;53.538;49.366;2023-03-22T14:51:02;11.80;55.80
67196;DHT22;54122;53.538;49.366;2023-03-22T14:53:36;11.70;56.00
67196;DHT22;54122;53.538;49.366;2023-03-22T14:56:06;11.60;56.50
67196;DHT22;54122;53.538;49.366;2023-03-22T14:58:36;11.50;56.80
67196;DHT22;54122;53.538;49.366;2023-03-22T15:01:14;11.40;57.10
67196;DHT22;54122;53.538;49.366;2023-03-22T15:03:47;11.30;57.50
67196;DHT22;54122;53.538;49.366;2023-03-22T15:06:15;11.20;58.00
67196;DHT22;54122;53.538;49.366;2023-03-22T15:08:45;11.10;58.30
67196;DHT22;54122;53.538;49.366;2023-03-22T15:11:13;11.10;58.60
67196;DHT22;54122;53.538;49.366;2023-03-22T15:13:40;11.10;59.00
67196;DHT22;54122;53.538;49.366;2023-03-22T15:16:09;11.00;59.20
67196;DHT22;54122;53.538;49.366;2023-03-22T15:18:40;10.90;59.60
67196;DHT22;54122;53.538;49.366;2023-03-22T15:21:08;10.80;60.00
67196;DHT22;54122;53.538;49.366;2023-03-22T15:23:36;10.80;60.40
67196;DHT22;54122;53.538;49.366;2023-03-22T15:26:17;10.70;61.70
67196;DHT22;54122;53.538;49.366;2023-03-22T15:28:59;10.60;62.10
67196;DHT22;54122;53.538;49.366;2023-03-22T15:31:32;10.50;61.40
67196;DHT22;54122;53.538;49.366;2023-03-22T15:34:01;10.40;61.50
67196;DHT22;54122;53.538;49.366;2023-03-22T15:36:30;10.30;62.00
67196;DHT22;54122;53.538;49.366;2023-03-22T15:39:04;10.30;62.20
67196;DHT22;54122;53.538;49.366;2023-03-22T15:41:39;10.30;62.60
67196;DHT22;54122;53.538;49.366;2023-03-22T15:52:20;10.00;63.50
67196;DHT22;54122;53.538;49.366;2023-03-22T15:55:03;9.90;63.80
67196;DHT22;54122;53.538;49.366;2023-03-22T15:57:37;9.80;64.20
67196;DHT22;54122;53.538;49.366;2023-03-22T16:02:51;9.70;64.50
67196;DHT22;54122;53.538;49.366;2023-03-22T16:05:18;9.60;64.90
67196;DHT22;54122;53.538;49.366;2023-03-22T16:07:45;9.60;65.10
67196;DHT22;54122;53.538;49.366;2023-03-22T16:10:20;9.60;65.30
67196;DHT22;54122;53.538;49.366;2023-03-22T16:12:47;9.60;65.70
67196;DHT22;54122;53.538;49.366;2023-03-22T16:17:42;9.50;66.50
67196;DHT22;54122;53.538;49.366;2023-03-22T16:20:10;9.40;66.70
67196;DHT22;54122;53.538;49.366;2023-03-22T16:22:38;9.40;67.10
67196;DHT22;54122;53.538;49.366;2023-03-22T16:25:05;9.30;67.30
67196;DHT22;54122;53.538;49.366;2023-03-22T16:27:32;9.30;67.40
67196;DHT22;54122;53.538;49.366;2023-03-22T16:29:59;9.20;67.80
67196;DHT22;54122;53.538;49.366;2023-03-22T16:32:27;9.20;68.10
67196;DHT22;54122;53.538;49.366;2023-03-22T16:34:53;9.20;68.50
67196;DHT22;54122;53.538;49.366;2023-03-22T16:37:22;9.10;68.70
67196;DHT22;54122;53.538;49.366;2023-03-22T16:39:49;9.00;68.90
67196;DHT22;54122;53.538;49.366;2023-03-22T16:42:18;9.00;69.30
67196;DHT22;54122;53.538;49.366;2023-03-22T16:44:46;8.90;69.40
67196;DHT22;54122;53.538;49.366;2023-03-22T16:47:19;8.90;69.80
67196;DHT22;54122;53.538;49.366;2023-03-22T16:49:47;8.80;70.30
67196;DHT22;54122;53.538;49.366;2023-03-22T16:52:16;8.70;70.30
67196;DHT22;54122;53.538;49.366;2023-03-22T16:54:52;8.70;70.50
67196;DHT22;54122;53.538;49.366;2023-03-22T16:57:20;8.60;70.60
67196;DHT22;54122;53.538;49.366;2023-03-22T16:59:48;8.50;70.70
67196;DHT22;54122;53.538;49.366;2023-03-22T17:02:26;8.50;71.10
67196;DHT22;54122;53.538;49.366;2023-03-22T17:04:53;8.50;71.10
67196;DHT22;54122;53.538;49.366;2023-03-22T17:07:23;8.50;71.20
67196;DHT22;54122;53.538;49.366;2023-03-22T17:09:52;8.50;71.30
67196;DHT22;54122;53.538;49.366;2023-03-22T17:12:21;8.50;71.30
67196;DHT22;54122;53.538;49.366;2023-03-22T17:14:49;8.50;71.30
67196;DHT22;54122;53.538;49.366;2023-03-22T17:17:17;8.50;71.30
67196;DHT22;54122;53.538;49.366;2023-03-22T17:19:45;8.40;71.30
67196;DHT22;54122;53.538;49.366;2023-03-22T17:22:13;8.40;71.40
67196;DHT22;54122;53.538;49.366;2023-03-22T17:24:40;8.40;71.50
67196;DHT22;54122;53.538;49.366;2023-03-22T17:27:09;8.30;72.80
67196;DHT22;54122;53.538;49.366;2023-03-22T17:29:37;8.30;72.10
67196;DHT22;54122;53.538;49.366;2023-03-22T17:32:06;8.30;72.40
67196;DHT22;54122;53.538;49.366;2023-03-22T17:34:33;8.30;72.40
67196;DHT22;54122;53.538;49.366;2023-03-22T17:37:00;8.30;72.40
67196;DHT22;54122;53.538;49.366;2023-03-22T17:39:26;8.30;72.30
67196;DHT22;54122;53.538;49.366;2023-03-22T17:41:59;8.30;72.30
67196;DHT22;54122;53.538;49.366;2023-03-22T17:44:25;8.30;72.30
67196;DHT22;54122;53.538;49.366;2023-03-22T17:46:55;8.30;72.20
67196;DHT22;54122;53.538;49.366;2023-03-22T17:49:22;8.30;72.20
67196;DHT22;54122;53.538;49.366;2023-03-22T17:51:48;8.40;72.40
67196;DHT22;54122;53.538;49.366;2023-03-22T17:54:15;8.30;72.40